sensor_id;sensor_type;location;lat;lon;timestamp;temperature;humidity
3954;DHT22;1991;48.682;9.030;2023-04-01T00:00:06;7.40;99.90
3954;DHT22;1991;48.682;9.030;2023-04-01T00:02:32;7.50;99.90
3954;DHT22;1991;48.682;9.030;2023-04-01T00:04:57;7.50;99.90
3954;DHT22;1991;48.682;9.030;2023-04-01T00:07:23;7.50;99.90
3954;DHT22;1991;48.682;9.030;2023-04-01T00:09:49;7.50;99.90
3954;DHT22;1991;48.682;9.030;2023-04-01T00:12:14;7.50;99.90
3954;DHT22;1991;48.682;9.030;2023-04-01T00:14:40;7.40;99.90
3954;DHT22;1991;48.682;9.030;2023-04-01T00:17:06;7.40;99.90
3954;DHT22;1991;48.682;9.030;2023-04-01T00:19:31;7.40;99.90
3954;DHT22;1991;48.682;9.030;2023-04-01T00:21:58;7.40;99.90
3954;DHT22;1991;48.682;9.030;2023-04-01T00:24:23;7.40;99.90
3954;DHT22;1991;48.682;9.030;2023-04-01T00:26:49;7.40;99.90
3954;DHT22;1991;48.682;9.030;2023-04-01T00:29:14;7.50;99.90
3954;DHT22;1991;48.682;9.030;2023-04-01T00:31:40;7.50;99.90
3954;DHT22;1991;48.682;9.030;2023-04-01T00:34:06;7.50;99.90
3954;DHT22;1991;48.682;9.030;2023-04-01T00:36:31;7.60;99.90
3954;DHT22;1991;48.682;9.030;2023-04-01T00:38:57;7.60;99.90
3954;DHT22;1991;48.682;9.030;2023-04-01T00:41:24;7.60;99.90
3954;DHT22;1991;48.682;9.030;2023-04-01T00:43:52;7.60;99.90
3954;DHT22;1991;48.682;9.030;2023-04-01T00:46:18;7.60;99.90
3954;DHT22;1991;48.682;9.030;2023-04-01T00:48:49;7.60;99.90
3954;DHT22;1991;48.682;9.030;2023-04-01T00:51:19;7.60;99.90
3954;DHT22;1991;48.682;9.030;2023-04-01T00:53:49;7.60;99.90
3954;DHT22;1991;48.682;9.030;2023-04-01T00:56:30;7.50;99.90
3954;DHT22;1991;48.682;9.030;2023-04-01T00:59:10;7.60;99.90
3954;DHT22;1991;48.682;9.030;2023-04-01T01:01:37;7.50;99.90
3954;DHT22;1991;48.682;9.030;2023-04-01T01:04:03;7.40;99.90
3954;DHT22;1991;48.682;9.030;2023-04-01T01:17:36;7.50;99.90
3954;DHT22;1991;48.682;9.030;2023-04-01T01:28:47;7.40;99.90
3954;DHT22;1991;48.682;9.030;2023-04-01T01:31:44;7.30;99.90
3954;DHT22;1991;48.682;9.030;2023-04-01T01:34:22;7.40;99.90
3954;DHT22;1991;48.682;9.030;2023-04-01T01:36:57;7.40;99.90
3954;DHT22;1991;48.682;9.030;2023-04-01T01:39:29;7.50;99.90
3954;DHT22;1991;48.682;9.030;2023-04-01T01:41:57;7.40;99.90
3954;DHT22;1991;48.682;9.030;2023-04-01T01:44:26;7.40;99.90
3954;DHT22;1991;48.682;9.030;2023-04-01T01:46:53;7.40;99.90
3954;DHT22;1991;48.682;9.030;2023-04-01T01:49:19;7.30;99.90
3954;DHT22;1991;48.682;9.030;2023-04-01T01:51:45;7.30;99.90
3954;DHT22;1991;48.682;9.030;2023-04-01T01:54:16;7.40;99.90
3954;DHT22;1991;48.682;9.030;2023-04-01T01:56:45;7.30;99.90
3954;DHT22;1991;48.682;9.030;2023-04-01T01:59:11;7.30;99.90
3954;DHT22;1991;48.682;9.030;2023-04-01T02:01:42;7.30;99.90
3954;DHT22;1991;48.682;9.030;2023-04-01T02:04:10;7.30;99.90
3954;DHT22;1991;48.682;9.030;2023-04-01T02:06:39;7.30;99.90
3954;DHT22;1991;48.682;9.030;2023-04-01T02:09:08;7.40;99.90
3954;DHT22;1991;48.682;9.030;2023-04-01T02:14:19;7.30;99.90
3954;DHT22;1991;48.682;9.030;2023-04-01T02:19:18;7.30;99.90
3954;DHT22;1991;48.682;9.030;2023-04-01T02:21:50;7.30;99.90
3954;DHT22;1991;48.682;9.030;2023-04-01T02:24:18;7.30;99.90
3954;DHT22;1991;48.682;9.030;2023-04-01T02:26:47;7.20;99.90
3954;DHT22;1991;48.682;9.030;2023-04-01T02:29:13;7.30;99.90
3954;DHT22;1991;48.682;9.030;2023-04-01T02:31:39;7.30;99.90
3954;DHT22;1991;48.682;9.030;2023-04-01T02:34:05;7.20;99.90
3954;DHT22;1991;48.682;9.030;2023-04-01T02:36:32;7.20;99.90
3954;DHT22;1991;48.682;9.030;2023-04-01T02:38:58;7.20;99.90
3954;DHT22;1991;48.682;9.030;2023-04-01T02:41:28;7.10;99.90
3954;DHT22;1991;48.682;9.030;2023-04-01T02:43:53;7.00;99.90
3954;DHT22;1991;48.682;9.030;2023-04-01T02:46:20;6.90;99.90
3954;DHT22;1991;48.682;9.030;2023-04-01T02:48:45;6.90;99.90
3954;DHT22;1991;48.682;9.030;2023-04-01T02:51:11;6.90;99.90
3954;DHT22;1991;48.682;9.030;2023-04-01T02:53:36;6.90;99.90
3954;DHT22;1991;48.682;9.030;2023-04-01T02:56:02;6.90;99.90
3954;DHT22;1991;48.682;9.030;2023-04-01T02:58:28;6.90;99.90
3954;DHT22;1991;48.682;9.030;2023-04-01T03:00:53;6.90;99.90
3954;DHT22;1991;48.682;9.030;2023-04-01T03:03:19;6.90;99.90
3954;DHT22;1991;48.682;9.030;2023-04-01T03:05:44;7.10;99.90
3954;DHT22;1991;48.682;9.030;2023-04-01T03:08:10;6.90;99.90
3954;DHT22;1991;48.682;9.030;2023-04-01T03:10:37;6.90;99.90
3954;DHT22;1991;48.682;9.030;2023-04-01T03:13:02;6.90;99.90
3954;DHT22;1991;48.682;9.030;2023-04-01T03:15:28;7.00;99.90
3954;DHT22;1991;48.682;9.030;2023-04-01T03:17:53;6.90;99.90
3954;DHT22;1991;48.682;9.030;2023-04-01T03:20:19;6.80;99.90
3954;DHT22;1991;48.682;9.030;2023-04-01T03:22:45;6.80;99.90
3954;DHT22;1991;48.682;9.030;2023-04-01T03:25:12;6.90;99.90
3954;DHT22;1991;48.682;9.030;2023-04-01T03:27:37;6.90;99.90
3954;DHT22;1991;48.682;9.030;2023-04-01T03:30:04;6.90;99.90
3954;DHT22;1991;48.682;9.030;2023-04-01T03:32:31;6.90;99.90
3954;DHT22;1991;48.682;9.030;2023-04-01T03:34:56;6.90;99.90
3954;DHT22;1991;48.682;9.030;2023-04-01T03:37:23;7.00;99.90
3954;DHT22;1991;48.682;9.030;2023-04-01T03:39:48;6.90;99.90
3954;DHT22;1991;48.682;9.030;2023-04-01T03:42:14;7.00;99.90
3954;DHT22;1991;48.682;9.030;2023-04-01T03:44:40;6.90;99.90
3954;DHT22;1991;48.682;9.030;2023-04-01T03:47:06;6.90;99.90
3954;DHT22;1991;48.682;9.030;2023-04-01T03:49:32;6.90;99.90
3954;DHT22;1991;48.682;9.030;2023-04-01T03:51:58;6.90;99.90
3954;DHT22;1991;48.682;9.030;2023-04-01T03:54:24;7.00;99.90
3954;DHT22;1991;48.682;9.030;2023-04-01T03:56:49;7.00;99.90
3954;DHT22;1991;48.682;9.030;2023-04-01T03:59:15;7.00;99.90
3954;DHT22;1991;48.682;9.030;2023-04-01T04:01:41;6.90;99.90
3954;DHT22;1991;48.682;9.030;2023-04-01T04:04:07;6.80;99.90
3954;DHT22;1991;48.682;9.030;2023-04-01T04:06:33;6.70;99.90
3954;DHT22;1991;48.682;9.030;2023-04-01T04:08:59;6.60;99.90
3954;DHT22;1991;48.682;9.030;2023-04-01T04:11:24;6.50;99.90
3954;DHT22;1991;48.682;9.030;2023-04-01T04:13:51;6.50;99.90
3954;DHT22;1991;48.682;9.030;2023-04-01T04:16:18;6.50;99.90
3954;DHT22;1991;48.682;9.030;2023-04-01T04:18:43;6.40;99.90
3954;DHT22;1991;48.682;9.030;2023-04-01T04:21:12;6.30;99.90
3954;DHT22;1991;48.682;9.030;2023-04-01T04:23:39;6.20;99.90
3954;DHT22;1991;48.682;9.030;2023-04-01T04:26:07;6.20;99.90
3954;DHT22;1991;48.682;9.030;2023-04-01T04:28:33;6.10;99.90
3954;DHT22;1991;48.682;9.030;2023-04-01T04:31:00;6.10;99.90
3954;DHT22;1991;48.682;9.030;2023-04-01T04:33:25;6.10;99.90
3954;DHT22;1991;48.682;9.030;2023-04-01T04:35:54;6.10;99.90
3954;DHT22;1991;48.682;9.030;2023-04-01T04:38:20;6.20;99.90
3954;DHT22;1991;48.682;9.030;2023-04-01T04:40:45;6.20;99.90
3954;DHT22;1991;48.682;9.030;2023-04-01T04:43:13;6.30;99.90
3954;DHT22;1991;48.682;9.030;2023-04-01T04:45:39;6.30;99.90
3954;DHT22;1991;48.682;9.030;2023-04-01T04:48:05;6.40;99.90
3954;DHT22;1991;48.682;9.030;2023-04-01T04:50:31;6.40;99.90
3954;DHT22;1991;48.682;9.030;2023-04-01T04:52:57;6.40;99.90
3954;DHT22;1991;48.682;9.030;2023-04-01T04:55:22;6.50;99.90
3954;DHT22;1991;48.682;9.030;2023-04-01T04:57:48;6.50;99.90
3954;DHT22;1991;48.682;9.030;2023-04-01T05:00:14;6.60;99.90
3954;DHT22;1991;48.682;9.030;2023-04-01T05:02:39;6.60;99.90
3954;DHT22;1991;48.682;9.030;2023-04-01T05:05:05;6.60;99.90
3954;DHT22;1991;48.682;9.030;2023-04-01T05:07:31;6.60;99.90
3954;DHT22;1991;48.682;9.030;2023-04-01T05:09:57;6.70;99.90
3954;DHT22;1991;48.682;9.030;2023-04-01T05:12:23;6.80;99.90
3954;DHT22;1991;48.682;9.030;2023-04-01T05:14:49;6.90;99.90
3954;DHT22;1991;48.682;9.030;2023-04-01T05:17:14;6.90;99.90
3954;DHT22;1991;48.682;9.030;2023-04-01T05:19:40;6.90;99.90
3954;DHT22;1991;48.682;9.030;2023-04-01T05:22:06;7.00;99.90
3954;DHT22;1991;48.682;9.030;2023-04-01T05:24:32;7.10;99.90
3954;DHT22;1991;48.682;9.030;2023-04-01T05:26:58;7.10;99.90
3954;DHT22;1991;48.682;9.030;2023-04-01T05:29:25;7.10;99.90
3954;DHT22;1991;48.682;9.030;2023-04-01T05:31:50;7.10;99.90
3954;DHT22;1991;48.682;9.030;2023-04-01T05:34:16;7.20;99.90
3954;DHT22;1991;48.682;9.030;2023-04-01T05:36:43;7.30;99.90
3954;DHT22;1991;48.682;9.030;2023-04-01T05:39:09;7.30;99.90
3954;DHT22;1991;48.682;9.030;2023-04-01T05:41:35;7.30;99.90
3954;DHT22;1991;48.682;9.030;2023-04-01T05:44:01;7.30;99.90
3954;DHT22;1991;48.682;9.030;2023-04-01T05:46:27;7.30;99.90
3954;DHT22;1991;48.682;9.030;2023-04-01T05:48:52;7.30;99.90
3954;DHT22;1991;48.682;9.030;2023-04-01T05:51:18;7.30;99.90
3954;DHT22;1991;48.682;9.030;2023-04-01T05:53:43;7.40;99.90
3954;DHT22;1991;48.682;9.030;2023-04-01T05:56:09;7.50;99.90
3954;DHT22;1991;48.682;9.030;2023-04-01T05:58:36;7.60;99.90
3954;DHT22;1991;48.682;9.030;2023-04-01T06:01:07;7.60;99.90
3954;DHT22;1991;48.682;9.030;2023-04-01T06:03:33;7.70;99.90
3954;DHT22;1991;48.682;9.030;2023-04-01T06:05:59;7.80;99.90
3954;DHT22;1991;48.682;9.030;2023-04-01T06:08:26;7.90;99.90
3954;DHT22;1991;48.682;9.030;2023-04-01T06:11:07;7.90;99.90
3954;DHT22;1991;48.682;9.030;2023-04-01T06:19:27;8.00;99.90
3954;DHT22;1991;48.682;9.030;2023-04-01T06:22:05;8.00;99.90
3954;DHT22;1991;48.682;9.030;2023-04-01T06:24:45;8.00;99.90
3954;DHT22;1991;48.682;9.030;2023-04-01T06:53:21;8.10;99.90
3954;DHT22;1991;48.682;9.030;2023-04-01T06:55:57;8.10;99.90
3954;DHT22;1991;48.682;9.030;2023-04-01T06:58:29;8.10;99.90
3954;DHT22;1991;48.682;9.030;2023-04-01T07:01:02;8.10;99.90
3954;DHT22;1991;48.682;9.030;2023-04-01T07:03:51;8.10;99.90
3954;DHT22;1991;48.682;9.030;2023-04-01T07:06:35;8.20;99.90
3954;DHT22;1991;48.682;9.030;2023-04-01T07:09:06;8.30;99.90
3954;DHT22;1991;48.682;9.030;2023-04-01T07:11:36;8.30;99.90
3954;DHT22;1991;48.682;9.030;2023-04-01T07:14:22;8.30;99.90
3954;DHT22;1991;48.682;9.030;2023-04-01T07:17:01;8.30;99.90
3954;DHT22;1991;48.682;9.030;2023-04-01T07:19:45;8.30;99.90
3954;DHT22;1991;48.682;9.030;2023-04-01T07:22:34;8.40;99.90
3954;DHT22;1991;48.682;9.030;2023-04-01T07:25:20;8.40;99.90
3954;DHT22;1991;48.682;9.030;2023-04-01T07:27:46;8.40;99.90
3954;DHT22;1991;48.682;9.030;2023-04-01T07:30:20;8.50;99.90
3954;DHT22;1991;48.682;9.030;2023-04-01T07:33:09;8.50;99.90
3954;DHT22;1991;48.682;9.030;2023-04-01T07:35:45;8.50;99.90
3954;DHT22;1991;48.682;9.030;2023-04-01T07:41:47;8.60;99.90
3954;DHT22;1991;48.682;9.030;2023-04-01T07:44:22;8.70;99.90
3954;DHT22;1991;48.682;9.030;2023-04-01T07:50:11;8.70;99.90
3954;DHT22;1991;48.682;9.030;2023-04-01T08:00:51;8.90;99.90
3954;DHT22;1991;48.682;9.030;2023-04-01T08:07:10;8.80;99.90
3954;DHT22;1991;48.682;9.030;2023-04-01T08:10:05;8.80;99.90
3954;DHT22;1991;48.682;9.030;2023-04-01T08:15:25;8.80;99.90
3954;DHT22;1991;48.682;9.030;2023-04-01T08:18:02;8.90;99.90
3954;DHT22;1991;48.682;9.030;2023-04-01T08:20:42;9.00;99.90
3954;DHT22;1991;48.682;9.030;2023-04-01T08:23:18;9.00;99.90
3954;DHT22;1991;48.682;9.030;2023-04-01T08:29:30;8.90;99.90
3954;DHT22;1991;48.682;9.030;2023-04-01T08:32:03;8.70;99.90
3954;DHT22;1991;48.682;9.030;2023-04-01T08:34:38;8.80;99.90
3954;DHT22;1991;48.682;9.030;2023-04-01T08:37:28;8.60;99.90
3954;DHT22;1991;48.682;9.030;2023-04-01T08:43:35;8.50;99.90
3954;DHT22;1991;48.682;9.030;2023-04-01T08:52:20;8.10;99.90
3954;DHT22;1991;48.682;9.030;2023-04-01T08:55:04;8.20;99.90
3954;DHT22;1991;48.682;9.030;2023-04-01T09:00:54;8.70;99.90
3954;DHT22;1991;48.682;9.030;2023-04-01T09:36:44;11.30;99.90
3954;DHT22;1991;48.682;9.030;2023-04-01T09:44:50;10.30;99.90
3954;DHT22;1991;48.682;9.030;2023-04-01T09:50:28;10.00;99.90
3954;DHT22;1991;48.682;9.030;2023-04-01T09:53:34;9.80;99.90
3954;DHT22;1991;48.682;9.030;2023-04-01T09:56:23;9.70;99.90
3954;DHT22;1991;48.682;9.030;2023-04-01T10:13:01;9.70;99.90
3954;DHT22;1991;48.682;9.030;2023-04-01T10:30:49;10.80;99.90
3954;DHT22;1991;48.682;9.030;2023-04-01T10:36:24;11.90;98.20
3954;DHT22;1991;48.682;9.030;2023-04-01T10:39:32;12.40;95.20
3954;DHT22;1991;48.682;9.030;2023-04-01T10:42:34;13.50;91.70
3954;DHT22;1991;48.682;9.030;2023-04-01T10:45:18;15.00;85.50
3954;DHT22;1991;48.682;9.030;2023-04-01T10:48:04;16.30;76.20
3954;DHT22;1991;48.682;9.030;2023-04-01T10:50:57;16.40;72.10
3954;DHT22;1991;48.682;9.030;2023-04-01T10:53:46;15.10;72.70
3954;DHT22;1991;48.682;9.030;2023-04-01T10:56:42;14.30;76.80
3954;DHT22;1991;48.682;9.030;2023-04-01T11:08:08;12.20;86.60
3954;DHT22;1991;48.682;9.030;2023-04-01T11:10:47;12.20;90.10
3954;DHT22;1991;48.682;9.030;2023-04-01T11:21:59;12.00;92.50
3954;DHT22;1991;48.682;9.030;2023-04-01T11:33:02;11.40;91.70
3954;DHT22;1991;48.682;9.030;2023-04-01T11:40:59;11.30;94.40
3954;DHT22;1991;48.682;9.030;2023-04-01T11:43:40;11.30;94.20
3954;DHT22;1991;48.682;9.030;2023-04-01T11:46:20;10.90;94.70
3954;DHT22;1991;48.682;9.030;2023-04-01T12:03:25;11.50;93.70
3954;DHT22;1991;48.682;9.030;2023-04-01T12:08:57;11.60;93.30
3954;DHT22;1991;48.682;9.030;2023-04-01T12:22:43;11.80;91.60
3954;DHT22;1991;48.682;9.030;2023-04-01T12:25:19;11.90;93.50
3954;DHT22;1991;48.682;9.030;2023-04-01T12:28:24;11.70;93.10
3954;DHT22;1991;48.682;9.030;2023-04-01T12:39:16;10.60;99.90
3954;DHT22;1991;48.682;9.030;2023-04-01T12:52:32;14.40;76.70
3954;DHT22;1991;48.682;9.030;2023-04-01T12:55:32;15.40;77.40
3954;DHT22;1991;48.682;9.030;2023-04-01T13:06:25;13.60;80.00
3954;DHT22;1991;48.682;9.030;2023-04-01T13:17:29;12.80;84.40
3954;DHT22;1991;48.682;9.030;2023-04-01T13:20:05;13.50;81.90
3954;DHT22;1991;48.682;9.030;2023-04-01T13:28:11;12.70;81.80
3954;DHT22;1991;48.682;9.030;2023-04-01T13:33:20;11.80;88.70
3954;DHT22;1991;48.682;9.030;2023-04-01T13:38:57;11.40;92.40
3954;DHT22;1991;48.682;9.030;2023-04-01T13:44:16;11.70;91.10
3954;DHT22;1991;48.682;9.030;2023-04-01T13:49:41;12.50;90.70
3954;DHT22;1991;48.682;9.030;2023-04-01T13:55:17;11.80;91.40
3954;DHT22;1991;48.682;9.030;2023-04-01T13:58:08;12.20;91.80
3954;DHT22;1991;48.682;9.030;2023-04-01T14:03:50;12.50;89.70
3954;DHT22;1991;48.682;9.030;2023-04-01T14:06:34;12.40;90.10
3954;DHT22;1991;48.682;9.030;2023-04-01T14:17:17;11.80;93.00
3954;DHT22;1991;48.682;9.030;2023-04-01T14:20:17;11.90;93.90
3954;DHT22;1991;48.682;9.030;2023-04-01T14:34:21;11.60;95.70
3954;DHT22;1991;48.682;9.030;2023-04-01T14:43:04;11.80;92.10
3954;DHT22;1991;48.682;9.030;2023-04-01T14:48:32;11.60;91.50
3954;DHT22;1991;48.682;9.030;2023-04-01T14:56:41;12.10;91.40
3954;DHT22;1991;48.682;9.030;2023-04-01T14:59:10;11.90;90.20
3954;DHT22;1991;48.682;9.030;2023-04-01T15:01:46;11.80;91.00
3954;DHT22;1991;48.682;9.030;2023-04-01T15:07:02;11.50;91.90
3954;DHT22;1991;48.682;9.030;2023-04-01T15:10:01;11.60;93.20
3954;DHT22;1991;48.682;9.030;2023-04-01T15:17:55;11.40;92.70
3954;DHT22;1991;48.682;9.030;2023-04-01T15:31:28;11.30;94.90
3954;DHT22;1991;48.682;9.030;2023-04-01T15:36:53;11.10;95.50
3954;DHT22;1991;48.682;9.030;2023-04-01T15:44:57;10.90;96.70
3954;DHT22;1991;48.682;9.030;2023-04-01T15:47:35;10.70;98.10
3954;DHT22;1991;48.682;9.030;2023-04-01T15:58:49;10.20;99.90
3954;DHT22;1991;48.682;9.030;2023-04-01T16:01:42;10.20;99.90
3954;DHT22;1991;48.682;9.030;2023-04-01T16:07:28;10.20;99.90
3954;DHT22;1991;48.682;9.030;2023-04-01T16:20:27;10.00;99.90
3954;DHT22;1991;48.682;9.030;2023-04-01T16:26:09;9.90;99.90
3954;DHT22;1991;48.682;9.030;2023-04-01T16:34:27;10.00;99.90
3954;DHT22;1991;48.682;9.030;2023-04-01T16:47:32;10.10;99.90
3954;DHT22;1991;48.682;9.030;2023-04-01T16:53:14;10.00;99.90
3954;DHT22;1991;48.682;9.030;2023-04-01T16:56:12;9.90;99.90
3954;DHT22;1991;48.682;9.030;2023-04-01T17:01:29;9.80;99.90
3954;DHT22;1991;48.682;9.030;2023-04-01T17:04:07;9.80;99.90
3954;DHT22;1991;48.682;9.030;2023-04-01T17:20:40;9.50;99.90
3954;DHT22;1991;48.682;9.030;2023-04-01T17:26:01;9.60;99.90
3954;DHT22;1991;48.682;9.030;2023-04-01T17:28:46;9.60;99.90
3954;DHT22;1991;48.682;9.030;2023-04-01T17:42:06;9.20;99.90
3954;DHT22;1991;48.682;9.030;2023-04-01T17:44:41;9.20;99.90
3954;DHT22;1991;48.682;9.030;2023-04-01T17:56:04;9.10;99.90
3954;DHT22;1991;48.682;9.030;2023-04-01T18:15:02;9.10;99.90
3954;DHT22;1991;48.682;9.030;2023-04-01T18:23:35;8.70;99.90
3954;DHT22;1991;48.682;9.030;2023-04-01T18:26:20;8.60;99.90
3954;DHT22;1991;48.682;9.030;2023-04-01T18:28:54;8.40;99.90
3954;DHT22;1991;48.682;9.030;2023-04-01T18:31:24;8.30;99.90
3954;DHT22;1991;48.682;9.030;2023-04-01T18:34:06;8.20;99.90
3954;DHT22;1991;48.682;9.030;2023-04-01T18:36:56;8.20;99.90
3954;DHT22;1991;48.682;9.030;2023-04-01T18:39:39;8.10;99.90
3954;DHT22;1991;48.682;9.030;2023-04-01T18:42:33;8.10;99.90
3954;DHT22;1991;48.682;9.030;2023-04-01T18:45:10;8.00;99.90
3954;DHT22;1991;48.682;9.030;2023-04-01T18:48:30;7.90;99.90
3954;DHT22;1991;48.682;9.030;2023-04-01T18:51:03;7.70;99.90
3954;DHT22;1991;48.682;9.030;2023-04-01T18:53:41;7.60;99.90
3954;DHT22;1991;48.682;9.030;2023-04-01T18:59:01;7.40;99.90
3954;DHT22;1991;48.682;9.030;2023-04-01T19:01:49;7.40;99.90
3954;DHT22;1991;48.682;9.030;2023-04-01T19:04:41;7.30;99.90
3954;DHT22;1991;48.682;9.030;2023-04-01T19:10:17;7.20;99.90
3954;DHT22;1991;48.682;9.030;2023-04-01T19:26:14;6.90;99.90
3954;DHT22;1991;48.682;9.030;2023-04-01T19:28:56;6.90;99.90
3954;DHT22;1991;48.682;9.030;2023-04-01T19:31:37;6.90;99.90
3954;DHT22;1991;48.682;9.030;2023-04-01T19:34:26;6.90;99.90
3954;DHT22;1991;48.682;9.030;2023-04-01T19:37:08;6.90;99.90
3954;DHT22;1991;48.682;9.030;2023-04-01T19:40:47;6.80;99.90
3954;DHT22;1991;48.682;9.030;2023-04-01T19:46:01;6.70;99.90
3954;DHT22;1991;48.682;9.030;2023-04-01T19:50:59;6.70;99.90
3954;DHT22;1991;48.682;9.030;2023-04-01T19:56:17;6.70;99.90
3954;DHT22;1991;48.682;9.030;2023-04-01T19:59:05;6.60;99.90
3954;DHT22;1991;48.682;9.030;2023-04-01T20:04:40;6.50;99.90
3954;DHT22;1991;48.682;9.030;2023-04-01T20:07:14;6.40;99.90
3954;DHT22;1991;48.682;9.030;2023-04-01T20:09:58;6.40;99.90
3954;DHT22;1991;48.682;9.030;2023-04-01T20:15:36;6.50;99.90
3954;DHT22;1991;48.682;9.030;2023-04-01T20:18:36;6.60;99.90
3954;DHT22;1991;48.682;9.030;2023-04-01T20:24:17;6.90;99.90
3954;DHT22;1991;48.682;9.030;2023-04-01T20:26:59;7.00;99.90
3954;DHT22;1991;48.682;9.030;2023-04-01T20:37:47;7.20;99.90
3954;DHT22;1991;48.682;9.030;2023-04-01T20:40:38;7.20;99.90
3954;DHT22;1991;48.682;9.030;2023-04-01T20:51:16;7.30;99.90
3954;DHT22;1991;48.682;9.030;2023-04-01T20:57:09;7.40;99.90
3954;DHT22;1991;48.682;9.030;2023-04-01T21:02:46;7.40;99.90
3954;DHT22;1991;48.682;9.030;2023-04-01T21:11:16;7.40;99.90
3954;DHT22;1991;48.682;9.030;2023-04-01T21:16:49;7.40;99.90
3954;DHT22;1991;48.682;9.030;2023-04-01T21:36:13;7.50;99.90
3954;DHT22;1991;48.682;9.030;2023-04-01T22:08:43;7.50;99.90
3954;DHT22;1991;48.682;9.030;2023-04-01T22:15:02;7.50;99.90
3954;DHT22;1991;48.682;9.030;2023-04-01T22:17:32;7.50;99.90
3954;DHT22;1991;48.682;9.030;2023-04-01T22:20:16;7.50;99.90
3954;DHT22;1991;48.682;9.030;2023-04-01T22:28:25;7.50;99.90
3954;DHT22;1991;48.682;9.030;2023-04-01T22:31:00;7.40;99.90
3954;DHT22;1991;48.682;9.030;2023-04-01T22:33:42;7.40;99.90
3954;DHT22;1991;48.682;9.030;2023-04-01T22:36:23;7.40;99.90
3954;DHT22;1991;48.682;9.030;2023-04-01T22:39:08;7.40;99.90
3954;DHT22;1991;48.682;9.030;2023-04-01T22:49:51;7.20;99.90
3954;DHT22;1991;48.682;9.030;2023-04-01T22:52:38;7.00;99.90
3954;DHT22;1991;48.682;9.030;2023-04-01T23:00:20;6.70;99.90
3954;DHT22;1991;48.682;9.030;2023-04-01T23:05:42;6.60;99.90
3954;DHT22;1991;48.682;9.030;2023-04-01T23:10:55;6.40;99.90
3954;DHT22;1991;48.682;9.030;2023-04-01T23:13:29;6.30;99.90
3954;DHT22;1991;48.682;9.030;2023-04-01T23:15:58;6.30;99.90
3954;DHT22;1991;48.682;9.030;2023-04-01T23:21:18;6.20;99.90
3954;DHT22;1991;48.682;9.030;2023-04-01T23:24:17;6.10;99.90
3954;DHT22;1991;48.682;9.030;2023-04-01T23:27:28;6.00;99.90
3954;DHT22;1991;48.682;9.030;2023-04-01T23:29:52;6.00;99.90
3954;DHT22;1991;48.682;9.030;2023-04-01T23:32:24;6.00;99.90
3954;DHT22;1991;48.682;9.030;2023-04-01T23:34:53;6.00;99.90
3954;DHT22;1991;48.682;9.030;2023-04-01T23:37:21;6.00;99.90
3954;DHT22;1991;48.682;9.030;2023-04-01T23:39:55;6.10;99.90
3954;DHT22;1991;48.682;9.030;2023-04-01T23:42:48;6.10;99.90
3954;DHT22;1991;48.682;9.030;2023-04-01T23:45:16;6.10;99.90
3954;DHT22;1991;48.682;9.030;2023-04-01T23:47:46;6.10;99.90
3954;DHT22;1991;48.682;9.030;2023-04-01T23:50:20;6.20;99.90
3954;DHT22;1991;48.682;9.030;2023-04-01T23:52:48;6.10;99.90
3954;DHT22;1991;48.682;9.030;2023-04-01T23:58:18;6.30;99.90
